sensor_id;sensor_type;location;lat;lon;timestamp;P1;durP1;ratioP1;P2;durP2;ratioP2
9094;SDS011;4583;49.796;9.902;2023-06-22T00:06:56;11.20;;;9.50;;
9094;SDS011;4583;49.796;9.902;2023-06-22T00:16:57;13.37;;;9.70;;
9094;SDS011;4583;49.796;9.902;2023-06-22T00:27:00;10.93;;;9.67;;
9094;SDS011;4583;49.796;9.902;2023-06-22T00:37:02;14.80;;;10.33;;
9094;SDS011;4583;49.796;9.902;2023-06-22T00:47:04;12.33;;;10.10;;
9094;SDS011;4583;49.796;9.902;2023-06-22T00:57:06;13.43;;;10.17;;
9094;SDS011;4583;49.796;9.902;2023-06-22T01:07:33;13.33;;;10.20;;
9094;SDS011;4583;49.796;9.902;2023-06-22T01:17:43;12.23;;;10.57;;
9094;SDS011;4583;49.796;9.902;2023-06-22T01:38:20;11.67;;;10.23;;
9094;SDS011;4583;49.796;9.902;2023-06-22T01:48:23;14.50;;;10.03;;
9094;SDS011;4583;49.796;9.902;2023-06-22T01:58:27;13.93;;;10.50;;
9094;SDS011;4583;49.796;9.902;2023-06-22T02:08:30;13.90;;;9.73;;
9094;SDS011;4583;49.796;9.902;2023-06-22T02:18:37;17.47;;;10.43;;
9094;SDS011;4583;49.796;9.902;2023-06-22T02:28:41;17.40;;;11.13;;
9094;SDS011;4583;49.796;9.902;2023-06-22T02:38:43;15.20;;;11.60;;
9094;SDS011;4583;49.796;9.902;2023-06-22T02:48:49;17.47;;;11.33;;
9094;SDS011;4583;49.796;9.902;2023-06-22T02:58:51;17.90;;;11.93;;
9094;SDS011;4583;49.796;9.902;2023-06-22T03:08:54;17.03;;;13.07;;
9094;SDS011;4583;49.796;9.902;2023-06-22T03:19:00;13.23;;;11.50;;
9094;SDS011;4583;49.796;9.902;2023-06-22T03:29:01;18.27;;;12.90;;
9094;SDS011;4583;49.796;9.902;2023-06-22T03:39:03;18.73;;;13.53;;
9094;SDS011;4583;49.796;9.902;2023-06-22T03:49:05;17.93;;;13.90;;
9094;SDS011;4583;49.796;9.902;2023-06-22T03:59:07;21.40;;;14.27;;
9094;SDS011;4583;49.796;9.902;2023-06-22T04:09:08;15.73;;;13.23;;
9094;SDS011;4583;49.796;9.902;2023-06-22T04:19:10;19.20;;;14.00;;
9094;SDS011;4583;49.796;9.902;2023-06-22T04:29:17;18.37;;;14.53;;
9094;SDS011;4583;49.796;9.902;2023-06-22T04:39:19;21.70;;;14.30;;
9094;SDS011;4583;49.796;9.902;2023-06-22T04:49:21;19.00;;;14.63;;
9094;SDS011;4583;49.796;9.902;2023-06-22T04:59:23;17.47;;;13.90;;
9094;SDS011;4583;49.796;9.902;2023-06-22T05:09:31;16.93;;;13.60;;
9094;SDS011;4583;49.796;9.902;2023-06-22T05:19:34;17.60;;;13.83;;
9094;SDS011;4583;49.796;9.902;2023-06-22T05:29:37;19.57;;;13.10;;
9094;SDS011;4583;49.796;9.902;2023-06-22T05:39:38;14.60;;;13.10;;
9094;SDS011;4583;49.796;9.902;2023-06-22T05:49:40;17.23;;;13.13;;
9094;SDS011;4583;49.796;9.902;2023-06-22T05:59:42;15.20;;;13.70;;
9094;SDS011;4583;49.796;9.902;2023-06-22T06:09:44;15.70;;;12.30;;
9094;SDS011;4583;49.796;9.902;2023-06-22T06:19:45;15.17;;;11.80;;
9094;SDS011;4583;49.796;9.902;2023-06-22T06:29:47;16.70;;;12.43;;
9094;SDS011;4583;49.796;9.902;2023-06-22T06:39:49;15.80;;;11.20;;
9094;SDS011;4583;49.796;9.902;2023-06-22T06:49:51;16.87;;;12.13;;
9094;SDS011;4583;49.796;9.902;2023-06-22T06:59:53;16.77;;;11.87;;
9094;SDS011;4583;49.796;9.902;2023-06-22T07:09:56;15.47;;;11.00;;
9094;SDS011;4583;49.796;9.902;2023-06-22T07:19:58;14.63;;;11.17;;
9094;SDS011;4583;49.796;9.902;2023-06-22T07:29:59;12.63;;;10.87;;
9094;SDS011;4583;49.796;9.902;2023-06-22T07:40:01;15.97;;;10.60;;
9094;SDS011;4583;49.796;9.902;2023-06-22T07:50:07;13.47;;;10.30;;
9094;SDS011;4583;49.796;9.902;2023-06-22T08:00:09;13.00;;;9.60;;
9094;SDS011;4583;49.796;9.902;2023-06-22T08:10:16;12.50;;;10.27;;
9094;SDS011;4583;49.796;9.902;2023-06-22T08:20:18;14.33;;;9.60;;
9094;SDS011;4583;49.796;9.902;2023-06-22T08:30:20;10.57;;;9.50;;
9094;SDS011;4583;49.796;9.902;2023-06-22T08:40:21;11.57;;;9.50;;
9094;SDS011;4583;49.796;9.902;2023-06-22T08:50:23;11.13;;;8.90;;
9094;SDS011;4583;49.796;9.902;2023-06-22T09:00:25;16.73;;;8.50;;
9094;SDS011;4583;49.796;9.902;2023-06-22T09:10:28;22.83;;;7.73;;
9094;SDS011;4583;49.796;9.902;2023-06-22T09:20:30;11.17;;;7.60;;
9094;SDS011;4583;49.796;9.902;2023-06-22T09:30:32;7.60;;;6.35;;
9094;SDS011;4583;49.796;9.902;2023-06-22T09:40:34;12.35;;;7.18;;
9094;SDS011;4583;49.796;9.902;2023-06-22T09:50:41;8.48;;;6.80;;
9094;SDS011;4583;49.796;9.902;2023-06-22T10:00:42;8.52;;;6.25;;
9094;SDS011;4583;49.796;9.902;2023-06-22T10:10:44;8.77;;;6.20;;
9094;SDS011;4583;49.796;9.902;2023-06-22T10:20:49;11.70;;;8.18;;
9094;SDS011;4583;49.796;9.902;2023-06-22T10:30:55;7.45;;;5.88;;
9094;SDS011;4583;49.796;9.902;2023-06-22T10:40:56;7.80;;;6.00;;
9094;SDS011;4583;49.796;9.902;2023-06-22T10:50:59;7.03;;;5.65;;
9094;SDS011;4583;49.796;9.902;2023-06-22T11:01:01;9.25;;;5.65;;
9094;SDS011;4583;49.796;9.902;2023-06-22T11:11:04;7.72;;;4.80;;
9094;SDS011;4583;49.796;9.902;2023-06-22T11:21:06;9.25;;;5.57;;
9094;SDS011;4583;49.796;9.902;2023-06-22T11:31:07;16.92;;;5.43;;
9094;SDS011;4583;49.796;9.902;2023-06-22T11:41:26;8.82;;;5.60;;
9094;SDS011;4583;49.796;9.902;2023-06-22T11:51:28;7.22;;;4.60;;
9094;SDS011;4583;49.796;9.902;2023-06-22T12:01:32;12.77;;;4.95;;
9094;SDS011;4583;49.796;9.902;2023-06-22T12:11:34;16.50;;;5.72;;
9094;SDS011;4583;49.796;9.902;2023-06-22T12:21:36;12.02;;;4.50;;
9094;SDS011;4583;49.796;9.902;2023-06-22T12:31:38;17.88;;;5.40;;
9094;SDS011;4583;49.796;9.902;2023-06-22T12:41:41;14.95;;;5.50;;
9094;SDS011;4583;49.796;9.902;2023-06-22T12:51:43;8.50;;;5.20;;
9094;SDS011;4583;49.796;9.902;2023-06-22T13:01:45;17.00;;;5.65;;
9094;SDS011;4583;49.796;9.902;2023-06-22T13:11:47;12.45;;;5.38;;
9094;SDS011;4583;49.796;9.902;2023-06-22T13:21:49;9.02;;;5.13;;
9094;SDS011;4583;49.796;9.902;2023-06-22T13:31:51;10.73;;;6.07;;
9094;SDS011;4583;49.796;9.902;2023-06-22T13:41:53;9.23;;;5.45;;
9094;SDS011;4583;49.796;9.902;2023-06-22T13:51:55;15.88;;;5.30;;
9094;SDS011;4583;49.796;9.902;2023-06-22T14:01:56;11.35;;;5.25;;
9094;SDS011;4583;49.796;9.902;2023-06-22T14:12:02;15.80;;;5.68;;
9094;SDS011;4583;49.796;9.902;2023-06-22T14:22:05;24.63;;;6.05;;
9094;SDS011;4583;49.796;9.902;2023-06-22T14:32:07;13.30;;;5.47;;
9094;SDS011;4583;49.796;9.902;2023-06-22T14:42:09;10.82;;;5.28;;
9094;SDS011;4583;49.796;9.902;2023-06-22T14:52:11;12.85;;;5.18;;
9094;SDS011;4583;49.796;9.902;2023-06-22T15:02:13;11.10;;;4.88;;
9094;SDS011;4583;49.796;9.902;2023-06-22T15:12:15;11.98;;;5.35;;
9094;SDS011;4583;49.796;9.902;2023-06-22T15:22:17;17.00;;;5.50;;
9094;SDS011;4583;49.796;9.902;2023-06-22T15:32:20;11.18;;;4.35;;
9094;SDS011;4583;49.796;9.902;2023-06-22T15:42:23;13.95;;;4.85;;
9094;SDS011;4583;49.796;9.902;2023-06-22T15:52:24;16.38;;;4.32;;
9094;SDS011;4583;49.796;9.902;2023-06-22T16:02:26;13.43;;;4.38;;
9094;SDS011;4583;49.796;9.902;2023-06-22T16:12:30;11.63;;;4.32;;
9094;SDS011;4583;49.796;9.902;2023-06-22T16:22:32;12.50;;;3.88;;
9094;SDS011;4583;49.796;9.902;2023-06-22T16:32:34;16.90;;;4.07;;
9094;SDS011;4583;49.796;9.902;2023-06-22T16:42:36;15.30;;;4.80;;
9094;SDS011;4583;49.796;9.902;2023-06-22T16:52:38;15.88;;;4.22;;
9094;SDS011;4583;49.796;9.902;2023-06-22T17:02:44;13.85;;;4.32;;
9094;SDS011;4583;49.796;9.902;2023-06-22T17:12:49;11.52;;;3.90;;
9094;SDS011;4583;49.796;9.902;2023-06-22T17:22:54;11.52;;;3.83;;
9094;SDS011;4583;49.796;9.902;2023-06-22T17:32:56;15.05;;;4.45;;
9094;SDS011;4583;49.796;9.902;2023-06-22T17:43:02;15.13;;;4.95;;
9094;SDS011;4583;49.796;9.902;2023-06-22T17:53:09;15.82;;;4.53;;
9094;SDS011;4583;49.796;9.902;2023-06-22T18:03:12;21.17;;;5.53;;
9094;SDS011;4583;49.796;9.902;2023-06-22T18:13:14;15.50;;;4.72;;
9094;SDS011;4583;49.796;9.902;2023-06-22T18:23:19;12.65;;;4.40;;
9094;SDS011;4583;49.796;9.902;2023-06-22T18:33:21;14.05;;;4.90;;
9094;SDS011;4583;49.796;9.902;2023-06-22T18:43:23;13.60;;;4.57;;
9094;SDS011;4583;49.796;9.902;2023-06-22T18:53:26;13.07;;;4.97;;
9094;SDS011;4583;49.796;9.902;2023-06-22T19:03:29;14.67;;;5.37;;
9094;SDS011;4583;49.796;9.902;2023-06-22T19:13:32;14.10;;;4.73;;
9094;SDS011;4583;49.796;9.902;2023-06-22T19:23:35;14.80;;;5.10;;
9094;SDS011;4583;49.796;9.902;2023-06-22T19:33:40;15.40;;;5.10;;
9094;SDS011;4583;49.796;9.902;2023-06-22T19:43:42;10.33;;;4.80;;
9094;SDS011;4583;49.796;9.902;2023-06-22T19:53:44;14.00;;;5.37;;
9094;SDS011;4583;49.796;9.902;2023-06-22T20:03:46;20.00;;;6.33;;
9094;SDS011;4583;49.796;9.902;2023-06-22T20:13:48;14.50;;;6.03;;
9094;SDS011;4583;49.796;9.902;2023-06-22T20:23:50;19.77;;;6.43;;
9094;SDS011;4583;49.796;9.902;2023-06-22T20:34:02;13.73;;;6.20;;
9094;SDS011;4583;49.796;9.902;2023-06-22T20:44:04;15.27;;;6.50;;
9094;SDS011;4583;49.796;9.902;2023-06-22T20:54:06;14.77;;;6.63;;
9094;SDS011;4583;49.796;9.902;2023-06-22T21:04:08;15.80;;;6.70;;
9094;SDS011;4583;49.796;9.902;2023-06-22T21:14:10;12.90;;;6.30;;
9094;SDS011;4583;49.796;9.902;2023-06-22T21:24:20;12.97;;;6.50;;
9094;SDS011;4583;49.796;9.902;2023-06-22T21:34:22;13.93;;;5.80;;
9094;SDS011;4583;49.796;9.902;2023-06-22T21:44:24;12.77;;;5.90;;
9094;SDS011;4583;49.796;9.902;2023-06-22T21:54:25;14.30;;;5.77;;
9094;SDS011;4583;49.796;9.902;2023-06-22T22:04:27;11.27;;;5.50;;
9094;SDS011;4583;49.796;9.902;2023-06-22T22:14:29;11.40;;;4.60;;
9094;SDS011;4583;49.796;9.902;2023-06-22T22:24:32;10.20;;;4.63;;
9094;SDS011;4583;49.796;9.902;2023-06-22T22:34:33;10.73;;;3.80;;
9094;SDS011;4583;49.796;9.902;2023-06-22T22:44:35;12.47;;;4.30;;
9094;SDS011;4583;49.796;9.902;2023-06-22T22:54:37;5.13;;;2.23;;
9094;SDS011;4583;49.796;9.902;2023-06-22T23:04:43;2.60;;;1.73;;
9094;SDS011;4583;49.796;9.902;2023-06-22T23:14:45;1.87;;;1.17;;
9094;SDS011;4583;49.796;9.902;2023-06-22T23:24:47;1.23;;;1.13;;
9094;SDS011;4583;49.796;9.902;2023-06-22T23:34:49;1.30;;;1.00;;
9094;SDS011;4583;49.796;9.902;2023-06-22T23:44:50;2.50;;;1.00;;
9094;SDS011;4583;49.796;9.902;2023-06-22T23:54:53;2.07;;;0.90;;
